Time;durP1;ratioP1;P1;durP2;ratioP2;P2;SDS_P1;SDS_P2;PMS_P1;PMS_P2;Temp;Humidity;BMP_temperature;BMP_pressure;BME280_temperature;BME280_humidity;BME280_pressure;Samples;Min_cycle;Max_cycle;Signal;HPM_P1;HPM_P2
2022/04/19 00:00:37;;;;;;;3.42;1.63;;;8.20;54.70;;;;;;4997882;28;20078;-73
2022/04/19 00:03:02;;;;;;;4.22;1.40;;;8.20;54.10;;;;;;5005356;28;20144;-73
2022/04/19 00:05:29;;;;;;;2.20;1.50;;;8.20;54.20;;;;;;5011288;28;20120;-72
2022/04/19 00:07:55;;;;;;;3.13;1.30;;;8.20;54.30;;;;;;5009205;28;20059;-74
2022/04/19 00:10:20;;;;;;;5.18;1.30;;;8.10;54.30;;;;;;5026773;28;20422;-74
2022/04/19 00:12:47;;;;;;;5.28;1.50;;;8.10;54.50;;;;;;5021183;28;20037;-73
2022/04/19 00:15:12;;;;;;;2.05;1.42;;;8.10;54.50;;;;;;5040899;28;20098;-72
2022/04/19 00:17:38;;;;;;;4.32;1.48;;;8.00;54.50;;;;;;5045146;28;20704;-73
2022/04/19 00:20:04;;;;;;;3.05;1.70;;;8.00;54.60;;;;;;5026775;28;20109;-73
2022/04/19 00:22:30;;;;;;;2.53;1.40;;;8.00;54.80;;;;;;5040261;28;20045;-72
2022/04/19 00:24:56;;;;;;;2.17;1.42;;;8.00;54.90;;;;;;5027815;28;20151;-73
2022/04/19 00:27:21;;;;;;;4.45;1.30;;;8.00;55.00;;;;;;5006874;28;20044;-73
2022/04/19 00:29:49;;;;;;;2.00;1.60;;;7.90;54.90;;;;;;5024500;28;20040;-73
2022/04/19 00:32:15;;;;;;;2.97;1.70;;;7.90;54.90;;;;;;5025507;28;20033;-73
2022/04/19 00:34:40;;;;;;;1.73;1.50;;;7.80;55.00;;;;;;5022840;28;20098;-74
2022/04/19 00:37:06;;;;;;;1.60;1.48;;;7.80;55.10;;;;;;5038969;28;20029;-72
2022/04/19 00:39:32;;;;;;;3.45;1.40;;;7.80;55.20;;;;;;5056606;28;20820;-73
2022/04/19 00:41:57;;;;;;;2.40;1.70;;;7.70;55.20;;;;;;4997607;28;20048;-74
2022/04/19 00:44:23;;;;;;;1.83;1.30;;;7.70;55.30;;;;;;5038347;28;20044;-72
2022/04/19 00:46:49;;;;;;;2.10;1.58;;;7.60;55.40;;;;;;5025175;28;20051;-73
2022/04/19 00:49:17;;;;;;;2.47;1.40;;;7.60;55.50;;;;;;5012570;28;20065;-72
2022/04/19 00:51:43;;;;;;;1.58;1.35;;;7.50;55.50;;;;;;5006333;28;20044;-74
2022/04/19 00:54:09;;;;;;;2.15;1.70;;;7.50;55.50;;;;;;5043464;28;20029;-73
2022/04/19 00:56:34;;;;;;;2.63;1.52;;;7.50;55.60;;;;;;5042466;28;20041;-74
2022/04/19 00:59:00;;;;;;;1.40;1.23;;;7.40;55.70;;;;;;5052574;28;20029;-73
2022/04/19 01:01:25;;;;;;;3.20;1.50;;;7.50;55.80;;;;;;5056498;28;20037;-73
2022/04/19 01:03:51;;;;;;;3.03;1.80;;;7.40;55.90;;;;;;5052434;28;20036;-73
2022/04/19 01:06:17;;;;;;;3.35;1.50;;;7.40;56.00;;;;;;5046298;28;20037;-72
2022/04/19 01:08:44;;;;;;;2.25;1.48;;;7.40;56.00;;;;;;5026167;28;20029;-72
2022/04/19 01:13:54;;;;;;;1.67;1.27;;;7.40;56.10;;;;;;5018614;28;20064;-73
2022/04/19 01:16:19;;;;;;;2.10;1.30;;;7.40;56.10;;;;;;5042832;28;20057;-73
2022/04/19 01:18:45;;;;;;;2.42;1.40;;;7.40;56.20;;;;;;5039636;28;20037;-72
2022/04/19 01:21:11;;;;;;;2.40;1.58;;;7.40;56.40;;;;;;5011326;28;20030;-75
2022/04/19 01:23:38;;;;;;;1.98;1.40;;;7.40;56.50;;;;;;5017549;28;20044;-73
2022/04/19 01:26:04;;;;;;;1.90;1.30;;;7.40;56.60;;;;;;5012777;28;20389;-73
2022/04/19 01:28:29;;;;;;;3.10;1.45;;;7.40;56.60;;;;;;5058129;28;20041;-72
2022/04/19 01:30:55;;;;;;;1.95;1.50;;;7.40;56.70;;;;;;5034082;28;20491;-72
2022/04/19 01:33:21;;;;;;;1.67;1.48;;;7.30;56.70;;;;;;5024019;28;20683;-73
2022/04/19 01:35:48;;;;;;;3.17;1.63;;;7.40;56.90;;;;;;5033947;28;20036;-73
2022/04/19 01:38:14;;;;;;;1.95;1.50;;;7.40;56.90;;;;;;5031846;28;20203;-72
2022/04/19 01:40:39;;;;;;;2.65;1.63;;;7.30;57.00;;;;;;5009647;28;20671;-74
2022/04/19 01:43:05;;;;;;;3.53;1.75;;;7.30;57.00;;;;;;5025677;28;20146;-73
2022/04/19 01:45:31;;;;;;;1.70;1.50;;;7.30;57.10;;;;;;5029563;28;20041;-72
2022/04/19 01:47:57;;;;;;;1.63;1.52;;;7.30;57.20;;;;;;5062213;28;20030;-72
2022/04/19 01:50:26;;;;;;;2.53;1.45;;;7.20;57.90;;;;;;5024004;28;20079;-73
2022/04/19 01:52:52;;;;;;;4.32;1.65;;;7.20;57.20;;;;;;5027418;28;20048;-72
2022/04/19 01:55:18;;;;;;;1.73;1.38;;;7.10;57.30;;;;;;5054818;28;20064;-72
2022/04/19 01:57:45;;;;;;;1.70;1.60;;;7.10;57.40;;;;;;5032940;28;20063;-72
2022/04/19 02:00:12;;;;;;;3.25;1.65;;;7.10;57.50;;;;;;5057856;28;20037;-72
2022/04/19 02:02:38;;;;;;;3.97;1.90;;;7.00;57.60;;;;;;5054290;28;20509;-72
2022/04/19 02:05:04;;;;;;;2.13;1.77;;;7.00;57.70;;;;;;5032565;28;20084;-72
2022/04/19 02:07:32;;;;;;;2.55;1.55;;;7.00;57.70;;;;;;5030834;28;20036;-72
2022/04/19 02:09:58;;;;;;;2.97;1.50;;;6.90;57.80;;;;;;5025510;28;20044;-72
2022/04/19 02:12:24;;;;;;;1.90;1.30;;;6.90;57.90;;;;;;5021222;28;20459;-73
2022/04/19 02:14:50;;;;;;;1.75;1.45;;;6.90;58.00;;;;;;5027534;28;20072;-74
2022/04/19 02:17:18;;;;;;;1.85;1.63;;;6.90;58.20;;;;;;5009383;28;20041;-72
2022/04/19 02:19:44;;;;;;;1.52;1.42;;;6.90;58.30;;;;;;5025867;28;20544;-72
2022/04/19 02:22:09;;;;;;;2.08;1.83;;;6.90;58.30;;;;;;5056908;28;20132;-72
2022/04/19 02:24:35;;;;;;;2.50;1.50;;;6.90;58.30;;;;;;5022343;28;20497;-73
2022/04/19 02:27:01;;;;;;;1.60;1.42;;;6.90;58.30;;;;;;4997475;28;20061;-72
2022/04/19 02:29:27;;;;;;;2.65;1.92;;;6.80;58.40;;;;;;5024358;28;20061;-72
2022/04/19 02:31:52;;;;;;;1.60;1.30;;;6.80;58.50;;;;;;5042343;28;20441;-72
2022/04/19 02:34:18;;;;;;;2.08;1.30;;;6.80;58.50;;;;;;5031955;28;20446;-73
2022/04/19 02:36:44;;;;;;;2.60;1.55;;;6.80;58.50;;;;;;5018387;28;20044;-73
2022/04/19 02:39:10;;;;;;;2.10;1.60;;;6.80;58.60;;;;;;5022358;28;20064;-72
2022/04/19 02:41:36;;;;;;;1.88;1.35;;;6.70;58.70;;;;;;5041452;28;20112;-72
2022/04/19 02:44:03;;;;;;;3.47;1.90;;;6.70;58.90;;;;;;5039802;28;20086;-74
2022/04/19 02:46:29;;;;;;;2.35;1.80;;;6.70;58.90;;;;;;5057156;28;20068;-73
2022/04/19 02:48:57;;;;;;;3.05;1.55;;;6.70;59.00;;;;;;5034043;28;20021;-72
2022/04/19 02:51:22;;;;;;;2.58;2.33;;;6.60;59.10;;;;;;5010134;28;20125;-72
2022/04/19 02:53:48;;;;;;;1.98;1.73;;;6.60;59.10;;;;;;5046010;28;20513;-72
2022/04/19 02:56:13;;;;;;;1.80;1.40;;;6.50;59.10;;;;;;5045642;28;20953;-72
2022/04/19 02:58:39;;;;;;;3.13;1.70;;;6.60;59.30;;;;;;5011191;28;20028;-72
2022/04/19 03:01:04;;;;;;;2.30;1.30;;;6.50;59.30;;;;;;5032268;28;20052;-72
2022/04/19 03:03:30;;;;;;;3.17;1.83;;;6.50;59.40;;;;;;5043338;28;20054;-72
2022/04/19 03:05:57;;;;;;;2.00;1.80;;;6.50;59.40;;;;;;5015764;28;20139;-70
2022/04/19 03:08:24;;;;;;;2.33;1.60;;;6.50;59.50;;;;;;5010811;28;20710;-71
2022/04/19 03:10:50;;;;;;;2.90;1.90;;;6.50;59.50;;;;;;5031816;28;20205;-70
2022/04/19 03:13:16;;;;;;;3.17;1.75;;;6.50;59.60;;;;;;5045272;28;20056;-72
2022/04/19 03:15:42;;;;;;;3.63;1.85;;;6.50;59.60;;;;;;5065375;28;20054;-74
2022/04/19 03:18:08;;;;;;;2.72;1.90;;;6.50;59.70;;;;;;5029523;28;20602;-72
2022/04/19 03:20:33;;;;;;;1.83;1.60;;;6.50;59.80;;;;;;5021712;28;20559;-73
2022/04/19 03:28:27;;;;;;;2.78;1.58;;;6.40;59.80;;;;;;5019059;28;20042;-73
2022/04/19 03:30:53;;;;;;;2.97;1.80;;;6.40;59.80;;;;;;5026380;28;20041;-73
2022/04/19 03:33:18;;;;;;;3.42;1.60;;;6.40;59.90;;;;;;5041082;28;20080;-73
2022/04/19 03:35:44;;;;;;;2.28;1.77;;;6.30;60.00;;;;;;5029398;28;20057;-73
2022/04/19 03:38:10;;;;;;;2.80;1.55;;;6.30;60.10;;;;;;5018764;28;20086;-72
2022/04/19 03:40:35;;;;;;;2.35;1.80;;;6.30;60.10;;;;;;5034813;28;20040;-73
2022/04/19 03:43:02;;;;;;;2.75;2.03;;;6.30;60.20;;;;;;5030083;28;20028;-73
2022/04/19 03:45:28;;;;;;;2.75;1.83;;;6.20;60.30;;;;;;5037443;28;20061;-72
2022/04/19 03:47:53;;;;;;;2.28;2.00;;;6.10;60.40;;;;;;5053801;28;20033;-72
2022/04/19 03:50:19;;;;;;;2.17;1.73;;;6.10;60.50;;;;;;5038063;28;20516;-73
2022/04/19 03:52:45;;;;;;;2.78;1.90;;;6.10;60.60;;;;;;5019038;28;20428;-74
2022/04/19 03:55:10;;;;;;;3.50;1.80;;;6.10;60.80;;;;;;5029269;28;20025;-73
2022/04/19 03:57:36;;;;;;;4.07;2.08;;;6.10;60.80;;;;;;5055969;28;20055;-73
2022/04/19 04:00:02;;;;;;;2.88;1.73;;;6.10;60.80;;;;;;5045641;28;20158;-72
2022/04/19 04:02:30;;;;;;;3.47;1.77;;;6.10;60.80;;;;;;5026156;28;20044;-74
2022/04/19 04:04:55;;;;;;;2.75;1.95;;;6.00;60.80;;;;;;5040594;28;20513;-73
2022/04/19 04:07:21;;;;;;;3.03;1.73;;;6.00;60.80;;;;;;5043810;28;20108;-74
2022/04/19 04:09:47;;;;;;;2.05;1.58;;;6.00;60.90;;;;;;5059565;28;20112;-73
2022/04/19 04:12:12;;;;;;;3.65;1.88;;;6.00;61.00;;;;;;5037806;28;20048;-72
2022/04/19 04:14:41;;;;;;;2.13;1.40;;;5.90;61.10;;;;;;4997349;28;20029;-74
2022/04/19 04:17:07;;;;;;;3.25;1.52;;;5.90;61.20;;;;;;5043587;28;20060;-72
2022/04/19 04:19:32;;;;;;;4.22;1.80;;;5.90;61.20;;;;;;5031665;28;20076;-72
2022/04/19 04:21:58;;;;;;;3.00;2.20;;;5.90;61.30;;;;;;5039675;28;20086;-74
2022/04/19 04:24:23;;;;;;;2.22;1.60;;;5.90;61.30;;;;;;5044013;28;20043;-73
2022/04/19 04:26:49;;;;;;;4.80;1.90;;;5.80;61.40;;;;;;5004989;28;20033;-74
2022/04/19 04:29:14;;;;;;;3.42;1.52;;;5.80;61.50;;;;;;5033779;28;20361;-73
2022/04/19 04:31:40;;;;;;;2.22;1.80;;;5.70;61.50;;;;;;5022176;28;20512;-74
2022/04/19 04:34:06;;;;;;;3.15;1.92;;;5.70;61.60;;;;;;5052594;28;20037;-73
2022/04/19 04:36:31;;;;;;;3.13;1.52;;;5.70;61.60;;;;;;5049186;28;20041;-73
2022/04/19 04:38:57;;;;;;;8.93;2.35;;;5.60;61.70;;;;;;5009612;28;20116;-74
2022/04/19 04:41:23;;;;;;;2.55;1.85;;;5.60;61.80;;;;;;5017784;28;20083;-74
2022/04/19 04:43:48;;;;;;;3.58;2.00;;;5.60;61.80;;;;;;5026412;28;20127;-73
2022/04/19 04:51:42;;;;;;;5.88;1.85;;;5.50;62.00;;;;;;5050918;28;20044;-73
2022/04/19 04:54:08;;;;;;;2.22;1.45;;;5.50;62.00;;;;;;5038699;28;20029;-72
2022/04/19 04:56:34;;;;;;;2.45;1.80;;;5.50;62.00;;;;;;5033755;28;20425;-73
2022/04/19 04:58:59;;;;;;;2.45;1.50;;;5.50;62.10;;;;;;5032391;28;20378;-73
2022/04/19 05:01:25;;;;;;;2.42;1.83;;;5.50;62.20;;;;;;5059230;28;20072;-72
2022/04/19 05:03:50;;;;;;;4.25;2.15;;;5.50;62.30;;;;;;5051299;28;20052;-73
2022/04/19 05:06:16;;;;;;;4.22;2.17;;;5.50;62.30;;;;;;5022608;28;20494;-73
2022/04/19 05:08:41;;;;;;;2.55;1.80;;;5.50;62.30;;;;;;5025697;28;20568;-72
2022/04/19 05:11:07;;;;;;;3.50;2.00;;;5.50;62.30;;;;;;5025401;28;20436;-72
2022/04/19 05:13:32;;;;;;;3.45;1.80;;;5.40;62.40;;;;;;5030075;28;20029;-73
2022/04/19 05:15:58;;;;;;;2.80;1.92;;;5.40;62.40;;;;;;5047001;28;20064;-74
2022/04/19 05:18:24;;;;;;;1.92;1.63;;;5.40;62.50;;;;;;5025219;28;20037;-73
2022/04/19 05:20:50;;;;;;;4.57;2.08;;;5.50;62.60;;;;;;5025992;28;20040;-72
2022/04/19 05:23:15;;;;;;;5.47;1.80;;;5.50;62.70;;;;;;5027404;28;20524;-73
2022/04/19 05:25:41;;;;;;;7.65;4.35;;;5.50;62.70;;;;;;5031206;28;20508;-73
2022/04/19 05:28:07;;;;;;;14.18;5.28;;;5.50;62.60;;;;;;5043024;28;20812;-72
2022/04/19 05:30:33;;;;;;;7.10;5.18;;;5.50;62.60;;;;;;5000215;28;20029;-72
2022/04/19 05:32:58;;;;;;;6.70;4.07;;;5.60;62.60;;;;;;5027965;28;20239;-74
2022/04/19 05:35:24;;;;;;;8.10;3.53;;;5.60;62.60;;;;;;5013292;28;20068;-73
2022/04/19 05:37:49;;;;;;;5.60;3.28;;;5.60;62.60;;;;;;5029402;28;20045;-73
2022/04/19 05:40:15;;;;;;;5.15;2.30;;;5.60;62.60;;;;;;5036766;28;20049;-73
2022/04/19 05:42:40;;;;;;;3.95;2.65;;;5.60;62.70;;;;;;5030208;28;20052;-73
2022/04/19 05:45:06;;;;;;;3.40;2.35;;;5.60;62.70;;;;;;5044210;28;20033;-74
2022/04/19 05:47:33;;;;;;;4.07;2.60;;;5.60;62.70;;;;;;5017884;28;20051;-73
2022/04/19 05:49:58;;;;;;;4.28;2.60;;;5.60;62.70;;;;;;5046980;28;20109;-72
2022/04/19 05:52:24;;;;;;;5.55;2.90;;;5.70;62.90;;;;;;5007077;28;20045;-73
2022/04/19 05:54:49;;;;;;;4.80;3.05;;;5.70;62.90;;;;;;5012402;28;21994;-72
2022/04/19 05:57:15;;;;;;;10.05;2.45;;;5.70;62.80;;;;;;5038020;28;20175;-73
2022/04/19 05:59:40;;;;;;;4.95;2.83;;;5.80;62.90;;;;;;5025024;28;20053;-73
2022/04/19 06:04:53;;;;;;;3.53;2.60;;;5.80;62.90;;;;;;5010252;28;20100;-72
2022/04/19 06:07:19;;;;;;;7.43;2.75;;;6.00;62.90;;;;;;5035705;28;20033;-74
2022/04/19 06:09:45;;;;;;;8.57;3.38;;;6.00;62.80;;;;;;5012912;28;20044;-75
2022/04/19 06:12:10;;;;;;;9.85;2.58;;;6.10;62.80;;;;;;5003491;28;20104;-73
2022/04/19 06:14:36;;;;;;;7.38;3.03;;;6.20;62.80;;;;;;5041682;28;20573;-73
2022/04/19 06:17:02;;;;;;;7.22;2.42;;;6.20;62.70;;;;;;5016828;28;20059;-74
2022/04/19 06:19:28;;;;;;;4.32;2.97;;;6.30;62.70;;;;;;5026743;28;20092;-73
2022/04/19 06:21:55;;;;;;;8.05;3.45;;;6.30;62.70;;;;;;5052687;28;20087;-73
2022/04/19 06:24:20;;;;;;;4.03;2.83;;;6.40;62.70;;;;;;5022616;28;20403;-72
2022/04/19 06:26:46;;;;;;;6.55;2.70;;;6.50;62.70;;;;;;5057363;28;20060;-72
2022/04/19 06:29:11;;;;;;;9.27;3.08;;;6.60;62.70;;;;;;5039072;28;20042;-73
2022/04/19 06:31:37;;;;;;;3.67;2.30;;;6.70;62.40;;;;;;5032192;28;20029;-73
2022/04/19 06:34:02;;;;;;;4.93;3.15;;;6.80;62.40;;;;;;5024364;28;20508;-73
2022/04/19 06:36:28;;;;;;;10.02;3.03;;;6.90;62.30;;;;;;5036655;28;20120;-75
2022/04/19 06:38:53;;;;;;;3.72;2.25;;;7.00;62.40;;;;;;5032654;28;20074;-75
2022/04/19 06:41:20;;;;;;;5.50;3.20;;;7.10;62.30;;;;;;5032354;28;20036;-75
2022/04/19 06:43:45;;;;;;;13.27;3.60;;;7.20;62.10;;;;;;5030025;28;20021;-75
2022/04/19 06:46:13;;;;;;;11.80;4.10;;;7.30;62.00;;;;;;5025236;28;20025;-74
2022/04/19 06:48:38;;;;;;;5.63;4.32;;;7.40;61.90;;;;;;5026698;28;20028;-73
2022/04/19 06:51:04;;;;;;;9.43;4.30;;;7.50;61.70;;;;;;5029271;28;20036;-73
2022/04/19 06:53:30;;;;;;;5.35;3.45;;;7.60;61.60;;;;;;4989541;28;20103;-73
2022/04/19 06:55:58;;;;;;;9.13;3.70;;;7.70;61.50;;;;;;5041374;28;20033;-73
2022/04/19 06:58:24;;;;;;;5.32;3.50;;;7.80;61.50;;;;;;5011186;28;20033;-73
2022/04/19 07:00:50;;;;;;;5.18;3.20;;;7.90;61.30;;;;;;5014145;28;20037;-73
2022/04/19 07:03:16;;;;;;;4.15;2.88;;;8.00;61.30;;;;;;5030107;28;20041;-73
2022/04/19 07:05:41;;;;;;;7.18;3.25;;;8.20;61.20;;;;;;5028994;28;20044;-73
2022/04/19 07:08:07;;;;;;;6.75;2.97;;;8.30;61.00;;;;;;5039222;28;20036;-72
2022/04/19 07:10:33;;;;;;;4.68;2.65;;;8.40;60.80;;;;;;5042289;28;20125;-73
2022/04/19 07:12:59;;;;;;;5.07;2.63;;;8.60;60.80;;;;;;5045132;28;20040;-73
2022/04/19 07:15:25;;;;;;;3.72;2.40;;;8.70;60.50;;;;;;5020732;28;20088;-74
2022/04/19 07:17:51;;;;;;;7.40;2.67;;;8.90;60.40;;;;;;5038907;28;20453;-74
2022/04/19 07:28:33;;;;;;;13.50;3.00;;;9.60;59.70;;;;;;5022547;28;20047;-72
2022/04/19 07:30:59;;;;;;;4.20;2.30;;;9.70;59.50;;;;;;5007269;28;21055;-71
2022/04/19 07:33:24;;;;;;;7.07;2.45;;;9.90;59.30;;;;;;5018453;28;20116;-71
2022/04/19 07:35:51;;;;;;;6.38;3.45;;;10.00;59.10;;;;;;5031239;28;20044;-70
2022/04/19 07:38:16;;;;;;;9.32;2.78;;;10.20;59.00;;;;;;5062711;28;20033;-72
2022/04/19 07:40:42;;;;;;;11.88;3.08;;;10.40;58.80;;;;;;5025914;28;20063;-72
2022/04/19 07:43:08;;;;;;;10.20;3.83;;;10.50;58.50;;;;;;5033150;28;21920;-73
2022/04/19 07:45:35;;;;;;;7.55;2.67;;;10.70;58.30;;;;;;5044116;28;20041;-72
2022/04/19 07:48:00;;;;;;;10.55;2.92;;;10.90;58.10;;;;;;5017206;28;20037;-71
2022/04/19 07:50:26;;;;;;;4.28;2.65;;;11.10;57.80;;;;;;5057768;28;20068;-71
2022/04/19 07:52:51;;;;;;;13.20;2.70;;;11.30;57.60;;;;;;5041892;28;20073;-71
2022/04/19 07:55:17;;;;;;;11.05;2.50;;;11.50;57.30;;;;;;5054125;28;20036;-71
2022/04/19 07:57:42;;;;;;;7.60;2.70;;;11.70;57.00;;;;;;5048968;28;20515;-72
2022/04/19 08:00:08;;;;;;;14.77;3.67;;;11.90;56.80;;;;;;5025205;28;20040;-72
2022/04/19 08:02:34;;;;;;;6.45;3.20;;;12.10;56.40;;;;;;5042841;28;20040;-72
2022/04/19 08:04:59;;;;;;;6.10;2.55;;;12.30;56.00;;;;;;5030870;28;20049;-73
2022/04/19 08:07:25;;;;;;;7.22;3.63;;;12.50;55.60;;;;;;5034005;28;20736;-72
2022/04/19 08:09:51;;;;;;;9.65;3.20;;;12.70;55.20;;;;;;5064757;28;20028;-73
2022/04/19 08:12:16;;;;;;;9.85;3.50;;;12.80;54.80;;;;;;5047797;28;20504;-73
2022/04/19 08:14:42;;;;;;;7.00;3.20;;;13.10;54.50;;;;;;5019862;28;21775;-72
2022/04/19 08:17:08;;;;;;;9.52;2.97;;;13.20;54.20;;;;;;5023332;28;20033;-73
2022/04/19 08:19:33;;;;;;;6.43;3.47;;;13.50;53.90;;;;;;5033165;28;20079;-72
2022/04/19 08:21:59;;;;;;;8.73;3.67;;;13.70;53.50;;;;;;5041742;28;20568;-72
2022/04/19 08:24:25;;;;;;;6.63;3.00;;;13.90;53.10;;;;;;5038558;28;20127;-73
2022/04/19 08:26:51;;;;;;;5.70;2.85;;;14.00;52.90;;;;;;5047950;28;20032;-73
2022/04/19 08:29:16;;;;;;;5.95;2.53;;;14.30;52.70;;;;;;5037107;28;20115;-73
2022/04/19 08:31:42;;;;;;;9.85;3.05;;;14.50;52.50;;;;;;5024601;28;20033;-75
2022/04/19 08:34:07;;;;;;;5.13;2.70;;;14.80;52.10;;;;;;5014034;28;20061;-73
2022/04/19 08:36:34;;;;;;;5.05;3.00;;;15.00;51.70;;;;;;5032107;28;20126;-72
2022/04/19 08:39:00;;;;;;;7.32;3.05;;;15.20;51.20;;;;;;5003792;28;20037;-72
2022/04/19 08:41:25;;;;;;;3.55;2.70;;;15.40;50.80;;;;;;5016668;28;20033;-73
2022/04/19 08:43:52;;;;;;;5.57;3.15;;;15.60;50.30;;;;;;5009560;28;20049;-73
2022/04/19 08:46:18;;;;;;;3.53;3.00;;;15.80;49.90;;;;;;5035234;28;20489;-72
2022/04/19 08:48:43;;;;;;;6.03;2.60;;;16.00;49.50;;;;;;5005210;28;20492;-73
2022/04/19 08:51:10;;;;;;;5.32;2.88;;;16.20;49.10;;;;;;4998813;28;20578;-74
2022/04/19 08:59:05;;;;;;;5.53;2.85;;;16.80;48.10;;;;;;4997953;28;20037;-73
2022/04/19 09:01:30;;;;;;;4.95;3.22;;;17.00;47.80;;;;;;4987337;28;20053;-73
2022/04/19 09:03:56;;;;;;;8.25;3.50;;;17.20;47.30;;;;;;5019625;28;20034;-73
2022/04/19 09:06:22;;;;;;;7.40;2.72;;;17.40;46.90;;;;;;5006732;28;20032;-72
2022/04/19 09:09:07;;;;;;;6.60;3.70;;;17.50;46.30;;;;;;5030334;28;20659;-73
2022/04/19 09:11:33;;;;;;;5.60;2.88;;;17.60;44.80;;;;;;4985015;28;20468;-72
2022/04/19 09:14:06;;;;;;;7.35;3.83;;;17.60;45.50;;;;;;4985106;28;20038;-73
2022/04/19 09:16:31;;;;;;;5.75;2.97;;;17.70;45.00;;;;;;4986410;28;20044;-73
2022/04/19 09:18:57;;;;;;;5.53;2.80;;;17.80;45.20;;;;;;5032703;28;20425;-72
2022/04/19 09:21:34;;;;;;;4.82;2.72;;;18.10;45.10;;;;;;5007622;28;20732;-72
2022/04/19 09:24:00;;;;;;;4.80;3.08;;;18.20;44.80;;;;;;5021404;28;20037;-73
2022/04/19 09:26:42;;;;;;;4.88;3.13;;;18.50;45.00;;;;;;4999661;28;20084;-73
2022/04/19 09:29:27;;;;;;;6.32;2.72;;;18.80;44.00;;;;;;5009493;28;20095;-73
2022/04/19 09:31:54;;;;;;;6.20;3.08;;;19.10;43.60;;;;;;5019282;28;20034;-74
2022/04/19 09:34:24;;;;;;;4.15;2.85;;;19.30;43.80;;;;;;5029205;28;20172;-73
2022/04/19 09:37:10;;;;;;;4.07;2.83;;;19.50;43.00;;;;;;5026213;28;20037;-74
2022/04/19 09:39:37;;;;;;;5.85;3.28;;;19.70;42.90;;;;;;5008226;28;20425;-72
2022/04/19 09:42:09;;;;;;;5.82;3.20;;;19.90;42.60;;;;;;5050471;28;20037;-74
2022/04/19 09:44:38;;;;;;;4.72;2.45;;;20.00;42.00;;;;;;5036841;28;20429;-72
2022/04/19 09:47:08;;;;;;;7.00;3.20;;;20.20;42.00;;;;;;5026128;28;20048;-73
2022/04/19 09:50:00;;;;;;;3.33;2.10;;;20.30;41.80;;;;;;5053055;28;20036;-73
2022/04/19 09:52:26;;;;;;;5.97;2.88;;;20.40;41.20;;;;;;5014293;28;20045;-74
2022/04/19 09:55:08;;;;;;;3.70;2.72;;;20.60;41.50;;;;;;5047809;28;20471;-74
2022/04/19 09:57:37;;;;;;;6.10;3.38;;;20.80;40.80;;;;;;5015478;28;20062;-73
2022/04/19 10:00:05;;;;;;;7.20;2.88;;;20.80;40.50;;;;;;5054017;28;20492;-73
2022/04/19 10:08:19;;;;;;;4.40;2.40;;;21.50;40.00;;;;;;5056395;28;20175;-74
2022/04/19 10:10:56;;;;;;;4.25;2.38;;;21.60;39.70;;;;;;5027157;28;20041;-73
2022/04/19 10:13:24;;;;;;;5.32;2.38;;;21.80;39.40;;;;;;5018933;28;20037;-74
2022/04/19 10:15:50;;;;;;;2.85;2.28;;;22.00;39.10;;;;;;5022095;28;20041;-73
2022/04/19 10:18:15;;;;;;;4.03;2.40;;;22.20;39.00;;;;;;5043681;28;20106;-74
2022/04/19 10:20:54;;;;;;;3.58;2.55;;;22.40;38.80;;;;;;5008089;28;20645;-74
2022/04/19 10:23:20;;;;;;;3.70;2.33;;;22.60;37.60;;;;;;5043467;28;20029;-73
2022/04/19 10:25:48;;;;;;;5.22;2.15;;;22.90;38.00;;;;;;5037435;28;20083;-73
2022/04/19 10:28:27;;;;;;;4.43;1.83;;;23.10;37.90;;;;;;5019853;28;20052;-74
2022/04/19 10:30:53;;;;;;;3.47;2.67;;;23.20;37.10;;;;;;5003631;28;20040;-73
2022/04/19 10:33:51;;;;;;;4.40;2.20;;;23.40;37.30;;;;;;5027038;28;20122;-74
2022/04/19 10:36:22;;;;;;;2.55;1.50;;;23.60;36.40;;;;;;5019281;28;20034;-73
2022/04/19 10:39:13;;;;;;;2.88;2.22;;;23.80;36.80;;;;;;5018429;28;20502;-73
2022/04/19 10:41:48;;;;;;;3.37;2.00;;;24.00;35.70;;;;;;5022970;28;20790;-74
2022/04/19 10:44:23;;;;;;;4.78;2.38;;;24.10;35.50;;;;;;4997665;28;20271;-73
2022/04/19 10:47:12;;;;;;;2.97;1.92;;;24.10;34.70;;;;;;4999290;28;20144;-73
2022/04/19 10:50:00;;;;;;;2.58;1.67;;;24.10;35.00;;;;;;5006864;28;20086;-73
2022/04/19 10:52:40;;;;;;;3.03;2.05;;;24.30;34.70;;;;;;5007200;28;20125;-74
2022/04/19 10:55:06;;;;;;;1.67;1.50;;;24.40;34.60;;;;;;5015063;28;20045;-73
2022/04/19 11:00:41;;;;;;;3.00;1.92;;;24.60;33.90;;;;;;4994026;28;20067;-75
2022/04/19 11:03:11;;;;;;;4.75;2.40;;;24.60;33.90;;;;;;5015841;28;20030;-73
2022/04/19 11:05:45;;;;;;;2.25;1.63;;;24.40;34.10;;;;;;4987504;28;20756;-73
2022/04/19 11:08:37;;;;;;;2.85;2.00;;;24.40;33.80;;;;;;5003095;28;20067;-73
2022/04/19 11:11:03;;;;;;;2.50;1.70;;;24.50;33.50;;;;;;4992148;28;20037;-74
2022/04/19 11:13:34;;;;;;;2.47;1.70;;;24.60;33.80;;;;;;5013676;28;20561;-73
2022/04/19 11:16:04;;;;;;;1.75;1.40;;;24.60;33.30;;;;;;5003386;28;20099;-73
2022/04/19 11:18:30;;;;;;;2.13;1.33;;;24.70;33.60;;;;;;5022778;28;20037;-73
2022/04/19 11:20:58;;;;;;;1.23;1.13;;;24.80;33.50;;;;;;4997435;28;20044;-73
2022/04/19 11:23:24;;;;;;;2.47;2.10;;;25.00;33.30;;;;;;4991950;28;20053;-73
2022/04/19 11:25:51;;;;;;;2.30;1.38;;;25.20;33.00;;;;;;5019363;28;20417;-73
2022/04/19 11:28:27;;;;;;;1.70;1.35;;;25.50;32.80;;;;;;5007576;28;20037;-73
2022/04/19 11:30:55;;;;;;;1.90;1.50;;;25.70;32.30;;;;;;5006403;28;20044;-74
2022/04/19 11:33:21;;;;;;;3.30;1.23;;;25.70;31.90;;;;;;5018780;28;20033;-73
2022/04/19 11:36:00;;;;;;;6.32;1.27;;;25.70;31.90;;;;;;5009034;28;20029;-75
2022/04/19 11:38:25;;;;;;;2.88;1.23;;;25.70;31.70;;;;;;5036890;28;21350;-74
2022/04/19 11:49:05;;;;;;;1.30;1.20;;;26.20;31.10;;;;;;5044462;28;20071;-73
2022/04/19 11:51:35;;;;;;;2.97;1.40;;;26.00;31.10;;;;;;5039511;28;20044;-73
2022/04/19 11:54:00;;;;;;;1.10;1.02;;;25.90;30.90;;;;;;5040346;28;20033;-73
2022/04/19 11:56:26;;;;;;;1.88;1.35;;;25.80;30.80;;;;;;5042054;28;20095;-74
2022/04/19 11:58:52;;;;;;;2.55;1.23;;;25.90;31.00;;;;;;5047723;28;20040;-74
2022/04/19 12:01:18;;;;;;;1.35;1.25;;;25.90;30.80;;;;;;5058464;28;20059;-74
2022/04/19 12:03:43;;;;;;;2.38;1.73;;;26.00;30.80;;;;;;5057092;28;20036;-74
2022/04/19 12:06:14;;;;;;;1.42;1.00;;;26.20;30.90;;;;;;5045421;28;20444;-74
2022/04/19 12:08:43;;;;;;;2.67;1.33;;;26.50;30.80;;;;;;5014990;28;20040;-73
2022/04/19 12:11:15;;;;;;;2.15;1.58;;;26.60;30.60;;;;;;5026697;28;20033;-74
2022/04/19 12:13:45;;;;;;;1.20;1.08;;;26.80;30.40;;;;;;5028670;28;20037;-74
2022/04/19 12:16:53;;;;;;;1.75;1.00;;;26.90;30.40;;;;;;5016254;28;20028;-74
2022/04/19 12:19:18;;;;;;;1.42;1.00;;;27.00;29.90;;;;;;4959621;28;20041;-73
2022/04/19 12:21:46;;;;;;;1.95;1.20;;;27.10;30.20;;;;;;4939438;28;20034;-73
2022/04/19 12:24:21;;;;;;;1.17;1.08;;;27.10;30.00;;;;;;4959524;28;20043;-74
2022/04/19 12:26:50;;;;;;;1.35;0.95;;;27.10;29.60;;;;;;4976044;28;20092;-73
2022/04/19 12:29:16;;;;;;;0.95;0.80;;;27.00;29.70;;;;;;4952054;28;20066;-74
2022/04/19 12:31:44;;;;;;;3.22;1.15;;;27.00;29.90;;;;;;4945108;28;21736;-74
2022/04/19 12:34:12;;;;;;;2.28;0.93;;;27.00;29.80;;;;;;4961544;28;20030;-74
2022/04/19 12:36:48;;;;;;;0.77;0.77;;;27.10;29.70;;;;;;4947721;28;20027;-74
2022/04/19 12:39:14;;;;;;;1.55;1.00;;;27.10;29.50;;;;;;4956258;28;20154;-74
2022/04/19 12:41:40;;;;;;;2.15;1.05;;;27.30;29.70;;;;;;4949520;28;20083;-76
2022/04/19 12:44:07;;;;;;;1.05;0.82;;;27.30;29.50;;;;;;4952351;28;20073;-73
2022/04/19 12:46:41;;;;;;;5.40;1.60;;;27.20;29.50;;;;;;4949396;28;20058;-76
2022/04/19 12:49:06;;;;;;;3.60;0.95;;;27.10;29.40;;;;;;4976500;28;20077;-73
2022/04/19 12:51:35;;;;;;;4.38;1.02;;;27.10;29.60;;;;;;4952346;28;20440;-73
2022/04/19 12:54:10;;;;;;;1.00;0.63;;;27.20;29.70;;;;;;5007201;28;20103;-73
2022/04/19 12:56:35;;;;;;;1.55;0.80;;;27.20;29.10;;;;;;5029147;28;20083;-76
2022/04/19 12:59:01;;;;;;;0.70;0.70;;;27.20;29.50;;;;;;5018219;28;20436;-76
2022/04/19 13:01:26;;;;;;;0.80;0.50;;;27.10;29.40;;;;;;5035059;28;20044;-74
2022/04/19 13:03:52;;;;;;;4.35;0.98;;;27.00;29.30;;;;;;5017321;28;20029;-73
2022/04/19 13:14:31;;;;;;;4.28;0.60;;;27.00;29.40;;;;;;4983026;28;20095;-73
2022/04/19 13:16:56;;;;;;;0.75;0.68;;;27.00;29.50;;;;;;5007089;28;20701;-74
2022/04/19 13:19:22;;;;;;;0.60;0.60;;;27.10;29.50;;;;;;5027635;28;20761;-73
2022/04/19 13:21:47;;;;;;;2.92;0.90;;;27.00;29.40;;;;;;5037898;28;20580;-74
2022/04/19 13:24:14;;;;;;;0.95;0.70;;;27.00;29.50;;;;;;5005266;28;20096;-74
2022/04/19 13:26:39;;;;;;;2.45;0.75;;;27.00;29.50;;;;;;5019279;28;20026;-73
2022/04/19 13:29:05;;;;;;;2.20;0.68;;;27.00;29.40;;;;;;5027653;28;20037;-75
2022/04/19 13:31:31;;;;;;;0.95;0.63;;;26.90;29.40;;;;;;5005240;28;20037;-73
2022/04/19 13:33:56;;;;;;;2.30;0.70;;;26.90;29.50;;;;;;5007015;28;20039;-73
2022/04/19 13:36:23;;;;;;;0.70;0.70;;;26.80;29.40;;;;;;5033923;28;20061;-74
2022/04/19 13:38:48;;;;;;;0.80;0.70;;;26.80;29.50;;;;;;5006427;28;20405;-73
2022/04/19 13:41:14;;;;;;;4.85;0.80;;;26.80;29.50;;;;;;5006984;28;20049;-73
2022/04/19 13:43:40;;;;;;;0.85;0.68;;;26.90;29.50;;;;;;5024117;28;20536;-74
2022/04/19 13:46:06;;;;;;;1.70;0.98;;;26.90;29.40;;;;;;5055573;28;20041;-73
2022/04/19 13:48:33;;;;;;;5.25;0.80;;;27.10;29.40;;;;;;5057083;28;20029;-74